createdAt,value
2022-12-14T00:00:41.944Z,61.47
2022-12-14T00:03:11.655Z,53.90
2022-12-14T00:05:44.429Z,62.60
2022-12-14T00:08:14.142Z,57.42
2022-12-14T00:10:44.253Z,56.67
2022-12-14T00:13:17.267Z,56.13
2022-12-14T00:15:46.825Z,57.50
2022-12-14T00:18:20.851Z,60.67
2022-12-14T00:20:54.566Z,55.80
2022-12-14T00:23:24.085Z,60.83
2022-12-14T00:25:53.573Z,57.53
2022-12-14T00:28:23.119Z,53.20
2022-12-14T00:30:59.288Z,45.95
2022-12-14T00:33:28.918Z,51.42
2022-12-14T00:36:01.008Z,49.63
2022-12-14T00:38:30.691Z,56.78
2022-12-14T00:41:00.299Z,52.15
2022-12-14T00:43:29.744Z,52.20
2022-12-14T00:45:59.419Z,57.10
2022-12-14T00:48:29.886Z,45.80
2022-12-14T00:51:02.343Z,50.40
2022-12-14T00:53:32.355Z,56.05
2022-12-14T00:56:07.851Z,53.25
2022-12-14T00:58:37.440Z,47.55
2022-12-14T01:01:09.091Z,49.65
2022-12-14T01:03:38.697Z,129.88
2022-12-14T01:06:16.172Z,127.93
2022-12-14T01:08:45.670Z,144.52
2022-12-14T01:11:16.173Z,89.28
2022-12-14T01:13:49.326Z,55.80
2022-12-14T01:16:19.715Z,47.05
2022-12-14T01:18:49.200Z,50.58
2022-12-14T01:21:24.062Z,46.30
2022-12-14T01:23:55.037Z,46.47
2022-12-14T01:26:25.888Z,40.22
2022-12-14T01:28:57.338Z,41.85
2022-12-14T01:31:28.421Z,48.63
2022-12-14T01:33:58.059Z,44.78
2022-12-14T01:36:31.999Z,49.78
2022-12-14T01:39:03.422Z,50.92
2022-12-14T01:41:34.891Z,45.67
2022-12-14T01:44:06.238Z,45.22
2022-12-14T01:46:38.487Z,41.50
2022-12-14T01:49:14.023Z,36.90
2022-12-14T01:51:49.400Z,39.45
2022-12-14T01:54:18.994Z,37.08
2022-12-14T01:56:49.095Z,42.60
2022-12-14T01:59:22.266Z,38.88
2022-12-14T02:01:51.870Z,36.50
2022-12-14T02:04:21.733Z,33.15
2022-12-14T02:07:00.818Z,36.58
2022-12-14T02:09:34.383Z,44.95
2022-12-14T02:12:09.104Z,38.80
2022-12-14T02:14:39.032Z,41.08
2022-12-14T02:17:10.009Z,39.80
2022-12-14T02:19:39.603Z,41.25
2022-12-14T02:22:30.645Z,37.47
2022-12-14T02:25:25.811Z,43.13
2022-12-14T02:28:21.897Z,39.53
2022-12-14T02:30:58.896Z,31.75
2022-12-14T02:33:38.143Z,38.40
2022-12-14T02:36:12.686Z,40.08
2022-12-14T02:38:49.751Z,40.75
2022-12-14T02:41:22.951Z,43.78
2022-12-14T02:43:57.484Z,41.92
2022-12-14T02:46:32.559Z,36.60
2022-12-14T02:49:05.088Z,35.35
2022-12-14T02:51:43.647Z,42.10
2022-12-14T02:54:15.409Z,38.50
2022-12-14T02:56:47.988Z,42.05
2022-12-14T02:59:18.639Z,46.38
2022-12-14T03:01:52.042Z,42.85
2022-12-14T03:04:21.706Z,32.30
2022-12-14T03:06:57.963Z,35.45
2022-12-14T03:09:28.799Z,37.92
2022-12-14T03:12:00.429Z,39.65
2022-12-14T03:14:32.613Z,37.00
2022-12-14T03:17:07.823Z,45.15
2022-12-14T03:19:40.172Z,35.25
2022-12-14T03:22:12.464Z,49.72
2022-12-14T03:24:44.917Z,44.30
2022-12-14T03:27:16.946Z,38.05
2022-12-14T03:29:49.316Z,34.42
2022-12-14T03:32:23.572Z,39.72
2022-12-14T03:34:57.577Z,42.83
2022-12-14T03:37:32.851Z,45.10
2022-12-14T03:40:02.264Z,44.60
2022-12-14T03:42:36.966Z,41.13
2022-12-14T03:45:10.453Z,39.97
2022-12-14T03:47:55.509Z,38.47
2022-12-14T03:50:27.811Z,40.08
2022-12-14T03:53:00.362Z,39.47
2022-12-14T03:55:34.478Z,49.10
2022-12-14T03:58:16.176Z,38.38
2022-12-14T04:00:51.244Z,40.33
2022-12-14T04:03:31.161Z,43.67
2022-12-14T04:06:04.901Z,37.92
2022-12-14T04:08:40.167Z,40.75
2022-12-14T04:11:24.123Z,40.10
2022-12-14T04:14:11.768Z,35.15
2022-12-14T04:16:56.667Z,40.60
2022-12-14T04:19:33.853Z,40.80
2022-12-14T04:22:06.790Z,40.13
2022-12-14T04:24:52.847Z,45.53
2022-12-14T04:27:25.354Z,36.58
2022-12-14T04:30:00.465Z,37.05
2022-12-14T04:32:33.301Z,36.88
2022-12-14T04:35:08.738Z,37.53
2022-12-14T04:37:40.151Z,55.40
2022-12-14T04:40:12.207Z,48.30
2022-12-14T04:42:47.009Z,107.18
2022-12-14T04:45:19.404Z,101.28
2022-12-14T04:47:59.256Z,58.50
2022-12-14T04:50:34.734Z,42.13
2022-12-14T04:53:06.641Z,34.15
2022-12-14T04:55:38.394Z,36.90
2022-12-14T04:58:13.073Z,50.05
2022-12-14T05:00:54.727Z,40.15
2022-12-14T05:03:27.691Z,50.05
2022-12-14T05:06:09.015Z,47.20
2022-12-14T05:09:08.800Z,45.05
2022-12-14T05:11:56.939Z,44.13
2022-12-14T05:14:32.326Z,41.13
2022-12-14T05:17:07.955Z,42.15
2022-12-14T05:19:38.052Z,46.20
2022-12-14T05:22:11.192Z,33.85
2022-12-14T05:24:40.821Z,36.42
2022-12-14T05:27:10.386Z,38.08
2022-12-14T05:29:39.815Z,35.53
2022-12-14T05:32:09.295Z,43.08
2022-12-14T05:34:38.664Z,45.45
2022-12-14T05:37:17.672Z,46.60
2022-12-14T05:39:47.696Z,35.13
2022-12-14T05:42:17.178Z,40.60
2022-12-14T05:44:46.613Z,44.33
2022-12-14T05:47:16.821Z,38.75
2022-12-14T05:49:46.256Z,44.35
2022-12-14T05:52:21.465Z,38.00
2022-12-14T05:54:50.816Z,42.38
2022-12-14T05:57:20.205Z,36.70
2022-12-14T05:59:50.486Z,43.05
2022-12-14T06:02:20.093Z,42.88
2022-12-14T06:04:49.612Z,37.67
2022-12-14T06:07:26.061Z,39.55
2022-12-14T06:09:57.057Z,39.30
2022-12-14T06:12:26.459Z,40.67
2022-12-14T06:14:55.846Z,44.65
2022-12-14T06:17:25.257Z,45.22
2022-12-14T06:19:54.621Z,44.45
2022-12-14T06:22:27.673Z,45.72
2022-12-14T06:24:57.116Z,47.45
2022-12-14T06:27:26.549Z,48.85
2022-12-14T06:29:55.995Z,44.38
2022-12-14T06:32:25.792Z,47.15
2022-12-14T06:34:55.163Z,39.70
2022-12-14T06:37:27.214Z,38.33
2022-12-14T06:39:56.568Z,44.88
2022-12-14T06:42:25.957Z,37.13
2022-12-14T06:44:55.541Z,45.67
2022-12-14T06:47:25.849Z,45.83
2022-12-14T06:49:55.491Z,56.03
2022-12-14T06:52:27.999Z,42.80
2022-12-14T06:54:57.632Z,47.65
2022-12-14T06:57:27.173Z,42.85
2022-12-14T06:59:56.577Z,44.17
2022-12-14T07:02:26.211Z,37.70
2022-12-14T07:04:55.776Z,49.42
2022-12-14T07:07:28.092Z,37.25
2022-12-14T07:09:57.475Z,36.25
2022-12-14T07:12:27.926Z,47.40
2022-12-14T07:14:57.612Z,45.63
2022-12-14T07:17:26.989Z,51.30
2022-12-14T07:19:56.506Z,43.28
2022-12-14T07:22:28.497Z,44.45
2022-12-14T07:24:58.704Z,45.83
2022-12-14T07:27:28.116Z,49.50
2022-12-14T07:29:57.531Z,41.53
2022-12-14T07:32:26.976Z,45.45
2022-12-14T07:34:56.345Z,42.58
2022-12-14T07:37:28.365Z,42.83
2022-12-14T07:39:57.796Z,46.80
2022-12-14T07:42:27.165Z,48.53
2022-12-14T07:44:56.568Z,45.78
2022-12-14T07:47:26.072Z,46.65
2022-12-14T07:49:55.476Z,44.90
2022-12-14T07:52:24.886Z,49.05
2022-12-14T07:54:56.873Z,53.28
2022-12-14T07:57:26.424Z,48.35
2022-12-14T07:59:57.549Z,46.55
2022-12-14T08:02:27.299Z,51.65
2022-12-14T08:04:56.864Z,48.60
2022-12-14T08:07:26.294Z,53.55
2022-12-14T08:09:58.259Z,41.63
2022-12-14T08:12:27.625Z,57.60
2022-12-14T08:14:57.023Z,51.95
2022-12-14T08:17:26.404Z,58.63
2022-12-14T08:19:56.001Z,48.60
2022-12-14T08:22:25.450Z,54.72
2022-12-14T08:24:54.851Z,55.92
2022-12-14T08:27:26.800Z,48.15
2022-12-14T08:29:56.242Z,47.88
2022-12-14T08:32:30.944Z,47.35
2022-12-14T08:35:01.967Z,43.40
2022-12-14T08:37:31.359Z,40.05
2022-12-14T08:40:00.781Z,41.70
2022-12-14T08:42:33.015Z,44.35
2022-12-14T08:45:02.434Z,45.42
2022-12-14T08:47:31.912Z,47.88
2022-12-14T08:50:01.329Z,43.25
2022-12-14T08:52:30.796Z,46.70
2022-12-14T08:55:00.156Z,44.13
2022-12-14T08:57:34.239Z,52.92
2022-12-14T09:00:03.759Z,76.20
2022-12-14T09:02:33.395Z,49.60
2022-12-14T09:05:02.859Z,51.35
2022-12-14T09:07:32.654Z,51.13
2022-12-14T09:10:02.166Z,46.30
2022-12-14T09:12:35.603Z,43.65
2022-12-14T09:15:05.044Z,47.25
2022-12-14T09:17:34.548Z,55.45
2022-12-14T09:20:04.000Z,65.20
2022-12-14T09:22:33.452Z,64.85
2022-12-14T09:25:04.588Z,56.90
2022-12-14T09:27:36.644Z,42.95
2022-12-14T09:30:06.770Z,57.70
2022-12-14T09:32:36.193Z,49.72
2022-12-14T09:35:05.568Z,48.38
2022-12-14T09:37:34.933Z,49.30
2022-12-14T09:40:04.372Z,60.67
2022-12-14T09:42:51.414Z,56.50
2022-12-14T09:45:25.090Z,43.90
2022-12-14T09:47:59.097Z,58.00
2022-12-14T09:50:28.884Z,55.72
2022-12-14T09:53:00.329Z,46.65
2022-12-14T09:55:33.822Z,53.33
2022-12-14T09:58:09.475Z,54.78
2022-12-14T10:00:51.460Z,40.92
2022-12-14T10:03:36.306Z,37.25
2022-12-14T10:06:35.736Z,39.85
2022-12-14T10:09:14.228Z,38.58
2022-12-14T10:11:50.456Z,40.30
2022-12-14T10:14:28.233Z,37.25
2022-12-14T10:17:03.090Z,38.08
2022-12-14T10:19:40.856Z,44.13
2022-12-14T10:22:14.821Z,35.75
2022-12-14T10:24:46.925Z,41.60
2022-12-14T10:27:23.633Z,38.40
2022-12-14T10:30:01.349Z,44.47
2022-12-14T10:32:35.861Z,34.97
2022-12-14T10:35:15.906Z,46.28
2022-12-14T10:37:47.260Z,34.90
2022-12-14T10:40:32.561Z,36.47
2022-12-14T10:43:10.333Z,39.50
2022-12-14T10:45:44.796Z,34.92
2022-12-14T10:48:41.958Z,35.67
2022-12-14T10:51:14.752Z,49.10
2022-12-14T10:53:47.817Z,40.28
2022-12-14T10:56:22.794Z,34.33
2022-12-14T10:59:15.686Z,40.75
2022-12-14T11:01:51.174Z,35.63
2022-12-14T11:04:30.853Z,33.88
2022-12-14T11:07:01.406Z,32.40
2022-12-14T11:09:31.785Z,30.25
2022-12-14T11:12:02.671Z,35.45
2022-12-14T11:14:32.673Z,37.40
2022-12-14T11:17:05.824Z,34.42
2022-12-14T11:19:37.647Z,34.50
2022-12-14T11:22:15.782Z,31.23
2022-12-14T11:24:51.737Z,30.90
2022-12-14T11:27:24.044Z,35.35
2022-12-14T11:29:54.025Z,36.00
2022-12-14T11:32:27.716Z,31.63
2022-12-14T11:35:01.396Z,37.67
2022-12-14T11:37:32.701Z,41.13
2022-12-14T11:40:04.048Z,31.75
2022-12-14T11:42:33.526Z,34.55
2022-12-14T11:45:22.670Z,32.33
2022-12-14T11:48:13.742Z,29.80
2022-12-14T11:50:43.663Z,33.40
2022-12-14T11:53:14.758Z,25.83
2022-12-14T11:55:47.773Z,25.25
2022-12-14T11:58:19.665Z,26.40
2022-12-14T12:00:51.568Z,29.58
2022-12-14T12:03:27.263Z,24.95
2022-12-14T12:05:57.097Z,26.27
2022-12-14T12:08:29.288Z,30.70
2022-12-14T12:11:02.588Z,33.30
2022-12-14T12:13:34.291Z,29.58
2022-12-14T12:16:07.044Z,34.30
2022-12-14T12:18:46.282Z,32.17
2022-12-14T12:21:18.888Z,28.35
2022-12-14T12:23:51.875Z,30.45
2022-12-14T12:26:24.300Z,32.58
2022-12-14T12:28:57.019Z,35.47
2022-12-14T12:31:29.573Z,25.17
2022-12-14T12:34:05.367Z,22.45
2022-12-14T12:36:35.419Z,23.60
2022-12-14T12:39:08.002Z,26.50
2022-12-14T12:41:49.336Z,25.85
2022-12-14T12:44:28.931Z,24.95
2022-12-14T12:47:38.199Z,28.30
2022-12-14T12:50:06.954Z,27.38
2022-12-14T12:52:39.038Z,25.23
2022-12-14T12:55:12.272Z,30.60
2022-12-14T12:57:44.692Z,27.27
2022-12-14T13:00:20.188Z,25.00
2022-12-14T13:02:52.556Z,27.23
2022-12-14T13:05:46.212Z,25.30
2022-12-14T13:08:22.846Z,27.77
2022-12-14T13:11:24.672Z,26.93
2022-12-14T13:13:44.762Z,30.25
2022-12-14T13:16:24.675Z,21.13
2022-12-14T13:19:08.978Z,22.50
2022-12-14T13:21:54.545Z,26.70
2022-12-14T13:24:26.087Z,26.53
2022-12-14T13:27:15.310Z,22.70
2022-12-14T13:29:56.394Z,25.20
2022-12-14T13:32:43.492Z,22.47
2022-12-14T13:35:25.562Z,25.50
2022-12-14T13:38:10.032Z,36.73
2022-12-14T13:41:04.965Z,20.47
2022-12-14T13:43:54.357Z,22.80
2022-12-14T13:46:25.565Z,29.40
2022-12-14T13:48:56.853Z,25.33
2022-12-14T13:51:31.032Z,24.13
2022-12-14T13:54:07.978Z,20.02
2022-12-14T13:56:40.221Z,22.25
2022-12-14T13:59:26.440Z,18.83
2022-12-14T14:01:59.788Z,22.70
2022-12-14T14:04:31.043Z,23.70
2022-12-14T14:07:50.941Z,21.30
2022-12-14T14:10:34.203Z,20.77
2022-12-14T14:13:04.637Z,22.65
2022-12-14T14:18:50.593Z,19.90
2022-12-14T14:21:38.911Z,20.83
2022-12-14T14:24:26.369Z,17.35
2022-12-14T14:27:04.089Z,18.83
2022-12-14T14:29:34.076Z,20.15
2022-12-14T14:32:04.851Z,18.33
2022-12-14T14:34:40.173Z,23.52
2022-12-14T14:37:26.889Z,21.45
2022-12-14T14:40:18.857Z,21.38
2022-12-14T14:42:54.553Z,26.10
2022-12-14T14:45:31.568Z,22.95
2022-12-14T14:48:02.353Z,25.60
2022-12-14T14:50:34.806Z,23.30
2022-12-14T14:53:14.385Z,27.45
2022-12-14T14:55:55.549Z,26.98
2022-12-14T14:58:30.940Z,22.70
2022-12-14T15:01:15.599Z,27.88
2022-12-14T15:03:50.931Z,33.22
2022-12-14T15:06:23.747Z,24.90
2022-12-14T15:08:58.765Z,32.35
2022-12-14T15:11:37.332Z,29.70
2022-12-14T15:14:18.247Z,32.03
2022-12-14T15:16:48.240Z,27.65
2022-12-14T15:19:24.808Z,31.65
2022-12-14T15:21:56.533Z,34.13
2022-12-14T15:24:26.865Z,32.20
2022-12-14T15:26:58.909Z,32.85
2022-12-14T15:29:30.502Z,36.28
2022-12-14T15:32:04.119Z,35.47
2022-12-14T15:34:33.709Z,40.47
2022-12-14T15:37:03.442Z,45.33
2022-12-14T15:39:40.695Z,37.28
2022-12-14T15:42:18.104Z,43.25
2022-12-14T15:44:54.170Z,43.50
2022-12-14T15:47:29.792Z,41.75
2022-12-14T15:50:18.118Z,41.45
2022-12-14T15:52:48.481Z,46.03
2022-12-14T15:55:29.515Z,46.22
2022-12-14T15:58:03.236Z,46.63
2022-12-14T16:00:32.711Z,45.08
2022-12-14T16:03:06.954Z,41.90
2022-12-14T16:05:37.519Z,44.63
2022-12-14T16:08:08.276Z,49.78
2022-12-14T16:10:37.775Z,42.95
2022-12-14T16:13:12.476Z,43.95
2022-12-14T16:15:42.022Z,37.95
2022-12-14T16:18:15.144Z,46.95
2022-12-14T16:20:47.055Z,39.35
2022-12-14T16:23:28.853Z,47.47
2022-12-14T16:26:00.844Z,40.78
2022-12-14T16:28:34.980Z,41.50
2022-12-14T16:31:06.363Z,41.75
2022-12-14T16:33:37.608Z,40.40
2022-12-14T16:36:09.296Z,40.20
2022-12-14T16:38:44.169Z,45.40
2022-12-14T16:41:13.843Z,39.78
2022-12-14T16:43:57.362Z,44.63
2022-12-14T16:46:26.953Z,38.92
2022-12-14T16:49:24.822Z,35.40
2022-12-14T16:52:09.364Z,32.17
2022-12-14T16:54:40.448Z,38.00
2022-12-14T16:57:20.717Z,42.85
2022-12-14T17:00:02.301Z,42.95
2022-12-14T17:02:34.534Z,39.97
2022-12-14T17:05:07.220Z,43.95
2022-12-14T17:07:36.992Z,36.85
2022-12-14T17:10:07.103Z,40.28
2022-12-14T17:12:36.618Z,53.65
2022-12-14T17:15:09.632Z,98.38
2022-12-14T17:17:39.332Z,50.53
2022-12-14T17:20:14.248Z,67.82
2022-12-14T17:22:49.643Z,41.60
2022-12-14T17:25:20.295Z,58.08
2022-12-14T17:27:50.151Z,46.55
2022-12-14T17:30:24.412Z,44.92
2022-12-14T17:32:55.487Z,56.60
2022-12-14T17:35:28.720Z,38.10
2022-12-14T17:37:58.220Z,37.75
2022-12-14T17:40:28.400Z,37.20
2022-12-14T17:42:59.920Z,32.78
2022-12-14T17:45:32.964Z,41.33
2022-12-14T17:48:02.476Z,38.55
2022-12-14T17:50:32.235Z,44.60
2022-12-14T17:53:03.001Z,46.83
2022-12-14T17:55:33.130Z,39.58
2022-12-14T17:58:02.753Z,43.80
2022-12-14T18:00:47.532Z,33.13
2022-12-14T18:03:18.306Z,35.65
2022-12-14T18:05:49.551Z,36.15
2022-12-14T18:08:19.527Z,53.22
2022-12-14T18:10:50.290Z,47.75
2022-12-14T18:13:19.892Z,41.17
2022-12-14T18:15:54.062Z,40.17
2022-12-14T18:18:28.324Z,37.10
2022-12-14T18:21:00.215Z,42.45
2022-12-14T18:23:30.835Z,39.90
2022-12-14T18:26:02.847Z,39.03
2022-12-14T18:28:32.308Z,42.83
2022-12-14T18:31:07.307Z,43.80
2022-12-14T18:33:36.848Z,38.80
2022-12-14T18:36:06.696Z,42.22
2022-12-14T18:38:36.157Z,46.33
2022-12-14T18:41:08.631Z,44.55
2022-12-14T18:43:43.414Z,40.83
2022-12-14T18:46:16.113Z,43.22
2022-12-14T18:48:46.506Z,40.17
2022-12-14T18:51:17.199Z,45.25
2022-12-14T18:53:46.641Z,45.45
2022-12-14T18:56:18.485Z,43.90
2022-12-14T18:58:47.995Z,65.55
2022-12-14T19:01:22.394Z,102.88
2022-12-14T19:03:52.609Z,50.75
2022-12-14T19:09:15.155Z,37.42
2022-12-14T19:11:46.094Z,41.97
2022-12-14T19:14:15.596Z,40.95
2022-12-14T19:16:47.616Z,41.65
2022-12-14T19:19:19.951Z,43.92
2022-12-14T19:21:52.427Z,61.35
2022-12-14T19:24:22.150Z,41.42
2022-12-14T19:26:51.668Z,46.55
2022-12-14T19:29:21.203Z,39.25
2022-12-14T19:31:54.562Z,41.65
2022-12-14T19:34:25.107Z,42.50
2022-12-14T19:36:54.674Z,46.55
2022-12-14T19:39:24.382Z,45.67
2022-12-14T19:41:54.223Z,42.53
2022-12-14T19:44:23.908Z,44.40
2022-12-14T19:46:56.174Z,41.45
2022-12-14T19:49:25.659Z,39.95
2022-12-14T19:51:55.203Z,51.65
2022-12-14T19:54:25.072Z,48.50
2022-12-14T19:56:54.678Z,43.53
2022-12-14T19:59:24.351Z,48.88
2022-12-14T20:01:57.619Z,50.30
2022-12-14T20:04:27.245Z,57.30
2022-12-14T20:06:56.818Z,45.53
2022-12-14T20:09:26.393Z,53.35
2022-12-14T20:11:55.925Z,46.03
2022-12-14T20:14:25.371Z,50.45
2022-12-14T20:17:00.154Z,46.47
2022-12-14T20:19:29.606Z,49.40
2022-12-14T20:21:59.149Z,41.53
2022-12-14T20:24:28.636Z,51.03
2022-12-14T20:26:58.124Z,50.53
2022-12-14T20:29:27.969Z,42.15
2022-12-14T20:32:00.166Z,53.00
2022-12-14T20:34:30.726Z,52.20
2022-12-14T20:37:00.173Z,49.53
2022-12-14T20:39:29.623Z,45.90
2022-12-14T20:41:59.036Z,50.28
2022-12-14T20:44:28.519Z,48.83
2022-12-14T20:47:00.636Z,48.70
2022-12-14T20:49:32.901Z,40.95
2022-12-14T20:52:02.673Z,49.17
2022-12-14T20:54:32.214Z,49.20
2022-12-14T20:57:01.759Z,50.90
2022-12-14T20:59:31.220Z,47.63
2022-12-14T21:02:03.567Z,48.60
2022-12-14T21:04:33.147Z,46.95
2022-12-14T21:07:02.681Z,49.40
2022-12-14T21:09:32.113Z,45.70
2022-12-14T21:12:14.030Z,50.30
2022-12-14T21:14:48.167Z,43.72
2022-12-14T21:17:21.040Z,51.55
2022-12-14T21:19:51.063Z,43.72
2022-12-14T21:22:22.402Z,43.47
2022-12-14T21:25:02.937Z,45.88
2022-12-14T21:27:33.880Z,43.08
2022-12-14T21:30:03.459Z,48.38
2022-12-14T21:32:37.950Z,53.05
2022-12-14T21:35:08.901Z,48.40
2022-12-14T21:37:40.374Z,39.83
2022-12-14T21:40:31.181Z,53.83
2022-12-14T21:42:58.020Z,52.25
2022-12-14T21:45:27.553Z,42.72
2022-12-14T21:47:59.717Z,44.80
2022-12-14T21:50:29.239Z,44.78
2022-12-14T21:52:58.767Z,41.47
2022-12-14T21:55:28.285Z,41.10
2022-12-14T21:58:10.222Z,51.38
2022-12-14T22:00:40.364Z,49.30
2022-12-14T22:03:12.621Z,47.15
2022-12-14T22:05:42.323Z,45.88
2022-12-14T22:08:11.771Z,46.63
2022-12-14T22:10:41.273Z,44.90
2022-12-14T22:13:10.766Z,48.72
2022-12-14T22:15:40.296Z,41.78
2022-12-14T22:18:12.362Z,49.28
2022-12-14T22:20:41.820Z,50.63
2022-12-14T22:23:11.208Z,41.42
2022-12-14T22:25:40.665Z,37.70
2022-12-14T22:28:10.158Z,37.75
2022-12-14T22:30:39.974Z,37.10
2022-12-14T22:33:12.587Z,35.78
2022-12-14T22:35:42.220Z,34.67
2022-12-14T22:38:11.633Z,32.10
2022-12-14T22:40:41.075Z,38.08
2022-12-14T22:43:10.653Z,36.20
2022-12-14T22:45:40.104Z,39.45
2022-12-14T22:48:12.360Z,30.40
2022-12-14T22:50:41.905Z,33.17
2022-12-14T22:53:12.991Z,36.67
2022-12-14T22:55:46.355Z,29.75
2022-12-14T22:58:20.276Z,35.75
2022-12-14T23:00:50.954Z,35.83
2022-12-14T23:03:24.288Z,30.67
2022-12-14T23:05:58.773Z,41.28
2022-12-14T23:08:31.408Z,41.47
2022-12-14T23:11:13.323Z,40.17
2022-12-14T23:13:55.243Z,31.15
2022-12-14T23:16:37.252Z,29.45
2022-12-14T23:19:21.821Z,31.73
2022-12-14T23:22:03.830Z,38.03
2022-12-14T23:24:46.694Z,29.65
2022-12-14T23:27:28.619Z,34.47
2022-12-14T23:30:10.593Z,30.17
2022-12-14T23:32:52.692Z,33.88
2022-12-14T23:35:38.224Z,30.88
2022-12-14T23:38:20.513Z,32.08
2022-12-14T23:41:02.494Z,25.40
2022-12-14T23:43:44.478Z,28.52
2022-12-14T23:46:26.510Z,31.20
2022-12-14T23:49:15.101Z,29.77
2022-12-14T23:52:00.495Z,33.53
2022-12-14T23:54:42.424Z,30.58
2022-12-14T23:57:26.043Z,31.10
